Hardin, Kentucky
Current Conditions -  °F | °C
As of 1:15 AM on Sunday 26 Oct 2014 (Local Time) from KCEY Reporting Station
Clear Clear  
Wind Chill: 59°   Ceiling: Unl
Heat Index: 59°   Visibility: 5mi
Dew Point: 59°   Wind: 5mph
Humidity: 100%   Direction: 230°SW
Pressure: 30"   Gusts: NA
Location:  36.76°N, 88.3°W
Report Text: KCEY 260615Z AUTO 23004KT 5SM CLR 15/15 A3000 RMK AO1
Loading
Personal Weather Stations






























Interactive Weather Map
Tropical Storm Tracking
New forecast layout! Learn more

10-Day Weather Forecast

Advertisements
Track Severe Weather on mobile